sensor_id;sensor_type;location;lat;lon;timestamp;temperature;humidity
11577;DHT22;5844;51.496;6.788;2022-07-05T00:00:45;16.70;1.00
11577;DHT22;5844;51.496;6.788;2022-07-05T00:03:10;16.60;1.00
11577;DHT22;5844;51.496;6.788;2022-07-05T00:05:37;16.60;1.00
11577;DHT22;5844;51.496;6.788;2022-07-05T00:08:03;16.60;1.00
11577;DHT22;5844;51.496;6.788;2022-07-05T00:10:30;16.60;1.00
11577;DHT22;5844;51.496;6.788;2022-07-05T00:12:56;16.50;1.00
11577;DHT22;5844;51.496;6.788;2022-07-05T00:15:22;16.50;1.00
11577;DHT22;5844;51.496;6.788;2022-07-05T00:17:48;16.50;1.00
11577;DHT22;5844;51.496;6.788;2022-07-05T00:20:14;16.40;1.00
11577;DHT22;5844;51.496;6.788;2022-07-05T00:22:41;16.40;1.00
11577;DHT22;5844;51.496;6.788;2022-07-05T00:25:07;16.30;1.00
11577;DHT22;5844;51.496;6.788;2022-07-05T00:27:32;16.30;1.00
11577;DHT22;5844;51.496;6.788;2022-07-05T00:29:58;16.30;1.00
11577;DHT22;5844;51.496;6.788;2022-07-05T00:32:24;16.40;1.00
11577;DHT22;5844;51.496;6.788;2022-07-05T00:34:49;16.40;1.00
11577;DHT22;5844;51.496;6.788;2022-07-05T00:37:15;16.50;1.00
11577;DHT22;5844;51.496;6.788;2022-07-05T00:39:42;16.60;1.00
11577;DHT22;5844;51.496;6.788;2022-07-05T00:42:07;16.60;1.00
11577;DHT22;5844;51.496;6.788;2022-07-05T00:44:35;16.70;1.00
11577;DHT22;5844;51.496;6.788;2022-07-05T00:47:05;16.80;1.00
11577;DHT22;5844;51.496;6.788;2022-07-05T00:49:34;16.80;1.00
11577;DHT22;5844;51.496;6.788;2022-07-05T00:52:00;16.80;1.00
11577;DHT22;5844;51.496;6.788;2022-07-05T00:54:27;16.90;1.00
11577;DHT22;5844;51.496;6.788;2022-07-05T00:56:53;17.00;1.00
11577;DHT22;5844;51.496;6.788;2022-07-05T00:59:19;17.00;1.00
11577;DHT22;5844;51.496;6.788;2022-07-05T01:01:45;17.00;1.00
11577;DHT22;5844;51.496;6.788;2022-07-05T01:04:12;17.00;1.00
11577;DHT22;5844;51.496;6.788;2022-07-05T01:06:43;16.90;1.00
11577;DHT22;5844;51.496;6.788;2022-07-05T01:09:13;16.80;1.00
11577;DHT22;5844;51.496;6.788;2022-07-05T01:11:44;16.80;1.00
11577;DHT22;5844;51.496;6.788;2022-07-05T01:14:12;16.70;1.00
11577;DHT22;5844;51.496;6.788;2022-07-05T01:16:40;16.70;1.00
11577;DHT22;5844;51.496;6.788;2022-07-05T01:19:06;16.80;1.00
11577;DHT22;5844;51.496;6.788;2022-07-05T01:21:41;16.80;1.00
11577;DHT22;5844;51.496;6.788;2022-07-05T01:24:09;16.80;1.00
11577;DHT22;5844;51.496;6.788;2022-07-05T01:26:35;16.80;1.00
11577;DHT22;5844;51.496;6.788;2022-07-05T01:29:01;16.80;1.00
11577;DHT22;5844;51.496;6.788;2022-07-05T01:31:27;16.80;1.00
11577;DHT22;5844;51.496;6.788;2022-07-05T01:33:52;16.70;1.00
11577;DHT22;5844;51.496;6.788;2022-07-05T01:36:18;16.70;1.00
11577;DHT22;5844;51.496;6.788;2022-07-05T01:38:45;16.60;1.00
11577;DHT22;5844;51.496;6.788;2022-07-05T01:41:11;16.60;1.00
11577;DHT22;5844;51.496;6.788;2022-07-05T01:43:37;16.50;1.00
11577;DHT22;5844;51.496;6.788;2022-07-05T01:46:04;16.40;1.00
11577;DHT22;5844;51.496;6.788;2022-07-05T01:48:32;16.20;1.00
11577;DHT22;5844;51.496;6.788;2022-07-05T01:51:05;16.20;1.00
11577;DHT22;5844;51.496;6.788;2022-07-05T01:53:33;16.10;1.00
11577;DHT22;5844;51.496;6.788;2022-07-05T01:56:00;16.10;1.00
11577;DHT22;5844;51.496;6.788;2022-07-05T01:58:27;16.10;1.00
11577;DHT22;5844;51.496;6.788;2022-07-05T02:00:54;16.20;1.00
11577;DHT22;5844;51.496;6.788;2022-07-05T02:03:21;16.20;1.00
11577;DHT22;5844;51.496;6.788;2022-07-05T02:05:47;16.30;1.00
11577;DHT22;5844;51.496;6.788;2022-07-05T02:08:14;16.30;1.00
11577;DHT22;5844;51.496;6.788;2022-07-05T02:10:42;16.30;1.00
11577;DHT22;5844;51.496;6.788;2022-07-05T02:13:08;16.20;1.00
11577;DHT22;5844;51.496;6.788;2022-07-05T02:15:35;16.20;1.00
11577;DHT22;5844;51.496;6.788;2022-07-05T02:18:02;16.10;1.00
11577;DHT22;5844;51.496;6.788;2022-07-05T02:20:29;16.10;1.00
11577;DHT22;5844;51.496;6.788;2022-07-05T02:22:55;16.00;1.00
11577;DHT22;5844;51.496;6.788;2022-07-05T02:25:21;16.00;1.00
11577;DHT22;5844;51.496;6.788;2022-07-05T02:27:47;16.00;1.00
11577;DHT22;5844;51.496;6.788;2022-07-05T02:30:14;15.90;1.00
11577;DHT22;5844;51.496;6.788;2022-07-05T02:32:40;15.90;1.00
11577;DHT22;5844;51.496;6.788;2022-07-05T02:35:07;15.90;1.00
11577;DHT22;5844;51.496;6.788;2022-07-05T02:37:34;15.90;1.00
11577;DHT22;5844;51.496;6.788;2022-07-05T02:39:59;15.90;1.00
11577;DHT22;5844;51.496;6.788;2022-07-05T02:42:25;15.80;1.00
11577;DHT22;5844;51.496;6.788;2022-07-05T02:44:51;15.80;1.00
11577;DHT22;5844;51.496;6.788;2022-07-05T02:47:16;15.90;1.00
11577;DHT22;5844;51.496;6.788;2022-07-05T02:49:42;15.80;1.00
11577;DHT22;5844;51.496;6.788;2022-07-05T02:52:08;15.70;1.00
11577;DHT22;5844;51.496;6.788;2022-07-05T02:54:33;15.60;1.00
11577;DHT22;5844;51.496;6.788;2022-07-05T02:57:00;15.50;1.00
11577;DHT22;5844;51.496;6.788;2022-07-05T02:59:26;15.50;1.00
11577;DHT22;5844;51.496;6.788;2022-07-05T03:01:52;15.30;1.00
11577;DHT22;5844;51.496;6.788;2022-07-05T03:04:17;15.20;1.00
11577;DHT22;5844;51.496;6.788;2022-07-05T03:06:43;15.20;1.00
11577;DHT22;5844;51.496;6.788;2022-07-05T03:09:09;15.10;1.00
11577;DHT22;5844;51.496;6.788;2022-07-05T03:11:35;15.10;1.00
11577;DHT22;5844;51.496;6.788;2022-07-05T03:14:01;15.00;1.00
11577;DHT22;5844;51.496;6.788;2022-07-05T03:16:27;15.00;1.00
11577;DHT22;5844;51.496;6.788;2022-07-05T03:18:53;15.10;1.00
11577;DHT22;5844;51.496;6.788;2022-07-05T03:21:19;15.20;1.00
11577;DHT22;5844;51.496;6.788;2022-07-05T03:23:45;15.20;1.00
11577;DHT22;5844;51.496;6.788;2022-07-05T03:26:10;15.20;1.00
11577;DHT22;5844;51.496;6.788;2022-07-05T03:28:36;15.20;1.00
11577;DHT22;5844;51.496;6.788;2022-07-05T03:31:02;15.10;1.00
11577;DHT22;5844;51.496;6.788;2022-07-05T03:33:27;15.10;1.00
11577;DHT22;5844;51.496;6.788;2022-07-05T03:35:53;15.10;1.00
11577;DHT22;5844;51.496;6.788;2022-07-05T03:38:19;15.20;1.00
11577;DHT22;5844;51.496;6.788;2022-07-05T03:40:44;15.20;1.00
11577;DHT22;5844;51.496;6.788;2022-07-05T03:43:10;15.20;1.00
11577;DHT22;5844;51.496;6.788;2022-07-05T03:45:36;15.10;1.00
11577;DHT22;5844;51.496;6.788;2022-07-05T03:48:01;15.00;1.00
11577;DHT22;5844;51.496;6.788;2022-07-05T03:50:27;15.00;1.00
11577;DHT22;5844;51.496;6.788;2022-07-05T03:52:53;15.00;1.00
11577;DHT22;5844;51.496;6.788;2022-07-05T03:55:19;14.90;1.00
11577;DHT22;5844;51.496;6.788;2022-07-05T03:57:45;14.90;1.00
11577;DHT22;5844;51.496;6.788;2022-07-05T04:00:11;14.90;1.00
11577;DHT22;5844;51.496;6.788;2022-07-05T04:02:37;14.80;1.00
11577;DHT22;5844;51.496;6.788;2022-07-05T04:05:04;14.80;1.00
11577;DHT22;5844;51.496;6.788;2022-07-05T04:07:30;14.80;1.00
11577;DHT22;5844;51.496;6.788;2022-07-05T04:09:55;14.80;1.00
11577;DHT22;5844;51.496;6.788;2022-07-05T04:12:21;14.80;1.00
11577;DHT22;5844;51.496;6.788;2022-07-05T04:14:47;14.80;1.00
11577;DHT22;5844;51.496;6.788;2022-07-05T04:17:13;14.80;1.00
11577;DHT22;5844;51.496;6.788;2022-07-05T04:19:39;14.80;1.00
11577;DHT22;5844;51.496;6.788;2022-07-05T04:22:05;14.80;1.00
11577;DHT22;5844;51.496;6.788;2022-07-05T04:24:31;14.90;1.00
11577;DHT22;5844;51.496;6.788;2022-07-05T04:26:56;14.90;1.00
11577;DHT22;5844;51.496;6.788;2022-07-05T04:29:22;14.90;1.00
11577;DHT22;5844;51.496;6.788;2022-07-05T04:31:48;15.00;1.00
11577;DHT22;5844;51.496;6.788;2022-07-05T04:34:14;15.00;1.00
11577;DHT22;5844;51.496;6.788;2022-07-05T04:36:39;15.10;1.00
11577;DHT22;5844;51.496;6.788;2022-07-05T04:39:07;15.10;1.00
11577;DHT22;5844;51.496;6.788;2022-07-05T04:41:33;15.10;1.00
11577;DHT22;5844;51.496;6.788;2022-07-05T04:43:59;15.30;1.00
11577;DHT22;5844;51.496;6.788;2022-07-05T04:46:24;15.40;1.00
11577;DHT22;5844;51.496;6.788;2022-07-05T04:48:50;15.50;1.00
11577;DHT22;5844;51.496;6.788;2022-07-05T04:51:17;15.60;1.00
11577;DHT22;5844;51.496;6.788;2022-07-05T04:53:42;15.60;1.00
11577;DHT22;5844;51.496;6.788;2022-07-05T04:56:08;15.70;1.00
11577;DHT22;5844;51.496;6.788;2022-07-05T04:58:35;15.70;1.00
11577;DHT22;5844;51.496;6.788;2022-07-05T05:01:01;15.70;1.00
11577;DHT22;5844;51.496;6.788;2022-07-05T05:03:26;15.80;1.00
11577;DHT22;5844;51.496;6.788;2022-07-05T05:05:52;15.90;1.00
11577;DHT22;5844;51.496;6.788;2022-07-05T05:08:18;16.00;1.00
11577;DHT22;5844;51.496;6.788;2022-07-05T05:10:43;16.10;1.00
11577;DHT22;5844;51.496;6.788;2022-07-05T05:13:09;16.40;1.00
11577;DHT22;5844;51.496;6.788;2022-07-05T05:15:35;16.70;1.00
11577;DHT22;5844;51.496;6.788;2022-07-05T05:18:00;16.90;1.00
11577;DHT22;5844;51.496;6.788;2022-07-05T05:20:27;17.10;1.00
11577;DHT22;5844;51.496;6.788;2022-07-05T05:22:53;17.40;1.00
11577;DHT22;5844;51.496;6.788;2022-07-05T05:25:18;17.50;1.00
11577;DHT22;5844;51.496;6.788;2022-07-05T05:27:45;17.60;99.90
11577;DHT22;5844;51.496;6.788;2022-07-05T05:30:12;17.80;99.90
11577;DHT22;5844;51.496;6.788;2022-07-05T05:32:38;17.90;99.90
11577;DHT22;5844;51.496;6.788;2022-07-05T05:35:04;17.90;99.90
11577;DHT22;5844;51.496;6.788;2022-07-05T05:37:30;18.00;99.90
11577;DHT22;5844;51.496;6.788;2022-07-05T05:39:56;18.00;99.90
11577;DHT22;5844;51.496;6.788;2022-07-05T05:42:21;18.00;99.90
11577;DHT22;5844;51.496;6.788;2022-07-05T05:44:47;18.10;99.90
11577;DHT22;5844;51.496;6.788;2022-07-05T05:47:13;18.20;99.90
11577;DHT22;5844;51.496;6.788;2022-07-05T05:49:39;18.30;99.90
11577;DHT22;5844;51.496;6.788;2022-07-05T05:52:05;18.50;99.90
11577;DHT22;5844;51.496;6.788;2022-07-05T05:54:31;18.50;99.90
11577;DHT22;5844;51.496;6.788;2022-07-05T05:56:57;18.50;99.90
11577;DHT22;5844;51.496;6.788;2022-07-05T05:59:22;18.60;99.90
11577;DHT22;5844;51.496;6.788;2022-07-05T06:01:48;18.70;99.90
11577;DHT22;5844;51.496;6.788;2022-07-05T06:04:13;18.70;99.90
11577;DHT22;5844;51.496;6.788;2022-07-05T06:06:39;18.70;99.90
11577;DHT22;5844;51.496;6.788;2022-07-05T06:09:05;18.80;99.90
11577;DHT22;5844;51.496;6.788;2022-07-05T06:11:30;18.80;99.90
11577;DHT22;5844;51.496;6.788;2022-07-05T06:13:56;18.80;99.90
11577;DHT22;5844;51.496;6.788;2022-07-05T06:16:22;18.70;99.90
11577;DHT22;5844;51.496;6.788;2022-07-05T06:18:47;18.60;99.90
11577;DHT22;5844;51.496;6.788;2022-07-05T06:21:13;18.60;99.90
11577;DHT22;5844;51.496;6.788;2022-07-05T06:23:38;18.50;99.90
11577;DHT22;5844;51.496;6.788;2022-07-05T06:26:04;18.60;99.90
11577;DHT22;5844;51.496;6.788;2022-07-05T06:28:30;18.60;99.90
11577;DHT22;5844;51.496;6.788;2022-07-05T06:30:57;18.80;99.90
11577;DHT22;5844;51.496;6.788;2022-07-05T06:33:22;18.90;99.90
11577;DHT22;5844;51.496;6.788;2022-07-05T06:35:48;19.00;99.90
11577;DHT22;5844;51.496;6.788;2022-07-05T06:38:14;19.10;99.90
11577;DHT22;5844;51.496;6.788;2022-07-05T06:40:41;19.20;99.90
11577;DHT22;5844;51.496;6.788;2022-07-05T06:43:08;19.30;99.90
11577;DHT22;5844;51.496;6.788;2022-07-05T06:45:34;19.40;1.00
11577;DHT22;5844;51.496;6.788;2022-07-05T06:48:03;19.50;1.00
11577;DHT22;5844;51.496;6.788;2022-07-05T06:50:34;19.60;1.00
11577;DHT22;5844;51.496;6.788;2022-07-05T06:53:02;19.80;1.00
11577;DHT22;5844;51.496;6.788;2022-07-05T06:55:29;19.90;1.00
11577;DHT22;5844;51.496;6.788;2022-07-05T06:58:04;20.00;1.00
11577;DHT22;5844;51.496;6.788;2022-07-05T07:00:31;20.00;1.00
11577;DHT22;5844;51.496;6.788;2022-07-05T07:02:57;20.20;1.00
11577;DHT22;5844;51.496;6.788;2022-07-05T07:05:23;20.40;1.00
11577;DHT22;5844;51.496;6.788;2022-07-05T07:07:49;20.50;1.00
11577;DHT22;5844;51.496;6.788;2022-07-05T07:10:33;20.40;1.00
11577;DHT22;5844;51.496;6.788;2022-07-05T07:12:59;20.60;1.00
11577;DHT22;5844;51.496;6.788;2022-07-05T07:15:25;20.80;1.00
11577;DHT22;5844;51.496;6.788;2022-07-05T07:17:51;21.20;1.00
11577;DHT22;5844;51.496;6.788;2022-07-05T07:20:17;21.40;1.00
11577;DHT22;5844;51.496;6.788;2022-07-05T07:22:43;21.60;99.90
11577;DHT22;5844;51.496;6.788;2022-07-05T07:25:09;21.60;99.90
11577;DHT22;5844;51.496;6.788;2022-07-05T07:27:50;21.30;99.90
11577;DHT22;5844;51.496;6.788;2022-07-05T07:30:18;21.00;99.90
11577;DHT22;5844;51.496;6.788;2022-07-05T07:32:45;21.00;1.00
11577;DHT22;5844;51.496;6.788;2022-07-05T07:35:11;21.00;1.00
11577;DHT22;5844;51.496;6.788;2022-07-05T07:37:37;21.00;1.00
11577;DHT22;5844;51.496;6.788;2022-07-05T07:40:04;21.20;1.00
11577;DHT22;5844;51.496;6.788;2022-07-05T07:42:30;21.40;1.00
11577;DHT22;5844;51.496;6.788;2022-07-05T07:44:56;21.60;1.00
11577;DHT22;5844;51.496;6.788;2022-07-05T07:47:22;21.80;1.00
11577;DHT22;5844;51.496;6.788;2022-07-05T07:49:48;22.00;1.00
11577;DHT22;5844;51.496;6.788;2022-07-05T07:52:14;21.90;99.90
11577;DHT22;5844;51.496;6.788;2022-07-05T07:54:40;21.70;99.90
11577;DHT22;5844;51.496;6.788;2022-07-05T07:57:06;21.70;1.00
11577;DHT22;5844;51.496;6.788;2022-07-05T07:59:32;21.70;99.90
11577;DHT22;5844;51.496;6.788;2022-07-05T08:01:58;21.80;1.00
11577;DHT22;5844;51.496;6.788;2022-07-05T08:04:24;22.10;1.00
11577;DHT22;5844;51.496;6.788;2022-07-05T08:06:49;22.30;99.90
11577;DHT22;5844;51.496;6.788;2022-07-05T08:09:16;22.40;99.90
11577;DHT22;5844;51.496;6.788;2022-07-05T08:11:42;22.30;12.90
11577;DHT22;5844;51.496;6.788;2022-07-05T08:14:08;22.60;99.90
11577;DHT22;5844;51.496;6.788;2022-07-05T08:16:34;22.70;1.00
11577;DHT22;5844;51.496;6.788;2022-07-05T08:19:00;22.50;1.00
11577;DHT22;5844;51.496;6.788;2022-07-05T08:21:44;22.40;1.00
11577;DHT22;5844;51.496;6.788;2022-07-05T08:24:13;22.70;99.90
11577;DHT22;5844;51.496;6.788;2022-07-05T08:26:40;22.90;1.00
11577;DHT22;5844;51.496;6.788;2022-07-05T08:29:09;22.90;99.90
11577;DHT22;5844;51.496;6.788;2022-07-05T08:31:43;23.00;1.00
11577;DHT22;5844;51.496;6.788;2022-07-05T08:34:10;22.90;1.00
11577;DHT22;5844;51.496;6.788;2022-07-05T08:36:36;22.80;1.00
11577;DHT22;5844;51.496;6.788;2022-07-05T08:39:02;22.80;99.90
11577;DHT22;5844;51.496;6.788;2022-07-05T08:41:29;23.00;99.90
11577;DHT22;5844;51.496;6.788;2022-07-05T08:43:57;22.90;99.90
11577;DHT22;5844;51.496;6.788;2022-07-05T08:46:24;22.60;20.90
11577;DHT22;5844;51.496;6.788;2022-07-05T08:48:51;22.40;99.90
11577;DHT22;5844;51.496;6.788;2022-07-05T08:51:21;22.50;1.00
11577;DHT22;5844;51.496;6.788;2022-07-05T08:53:49;22.30;1.00
11577;DHT22;5844;51.496;6.788;2022-07-05T08:56:16;22.40;99.90
11577;DHT22;5844;51.496;6.788;2022-07-05T08:58:42;22.50;1.00
11577;DHT22;5844;51.496;6.788;2022-07-05T09:01:10;22.60;5.60
11577;DHT22;5844;51.496;6.788;2022-07-05T09:03:42;22.70;1.00
11577;DHT22;5844;51.496;6.788;2022-07-05T09:06:11;22.60;99.90
11577;DHT22;5844;51.496;6.788;2022-07-05T09:08:38;22.40;99.90
11577;DHT22;5844;51.496;6.788;2022-07-05T09:11:09;22.30;99.90
11577;DHT22;5844;51.496;6.788;2022-07-05T09:13:37;22.50;99.90
11577;DHT22;5844;51.496;6.788;2022-07-05T09:16:03;22.70;1.00
11577;DHT22;5844;51.496;6.788;2022-07-05T09:18:40;22.70;1.00
11577;DHT22;5844;51.496;6.788;2022-07-05T09:21:20;22.60;1.00
11577;DHT22;5844;51.496;6.788;2022-07-05T09:23:57;22.50;1.00
11577;DHT22;5844;51.496;6.788;2022-07-05T09:26:33;22.40;1.00
11577;DHT22;5844;51.496;6.788;2022-07-05T09:28:59;22.40;99.90
11577;DHT22;5844;51.496;6.788;2022-07-05T09:31:30;22.30;1.00
11577;DHT22;5844;51.496;6.788;2022-07-05T09:34:13;22.10;1.00
11577;DHT22;5844;51.496;6.788;2022-07-05T09:36:58;22.10;1.00
11577;DHT22;5844;51.496;6.788;2022-07-05T09:42:21;22.70;99.90
11577;DHT22;5844;51.496;6.788;2022-07-05T09:44:56;22.60;1.00
11577;DHT22;5844;51.496;6.788;2022-07-05T09:47:23;22.90;99.90
11577;DHT22;5844;51.496;6.788;2022-07-05T09:49:58;22.90;1.00
11577;DHT22;5844;51.496;6.788;2022-07-05T09:52:33;22.90;99.90
11577;DHT22;5844;51.496;6.788;2022-07-05T09:57:31;23.40;99.90
11577;DHT22;5844;51.496;6.788;2022-07-05T10:00:06;24.20;1.00
11577;DHT22;5844;51.496;6.788;2022-07-05T10:02:40;24.60;99.90
11577;DHT22;5844;51.496;6.788;2022-07-05T10:05:13;24.60;99.90
11577;DHT22;5844;51.496;6.788;2022-07-05T10:07:41;24.30;1.00
11577;DHT22;5844;51.496;6.788;2022-07-05T10:10:11;24.30;99.90
11577;DHT22;5844;51.496;6.788;2022-07-05T10:12:37;24.40;1.00
11577;DHT22;5844;51.496;6.788;2022-07-05T10:15:06;24.20;1.00
11577;DHT22;5844;51.496;6.788;2022-07-05T10:17:36;24.00;99.90
11577;DHT22;5844;51.496;6.788;2022-07-05T10:20:25;23.70;99.90
11577;DHT22;5844;51.496;6.788;2022-07-05T10:22:54;23.50;19.00
11577;DHT22;5844;51.496;6.788;2022-07-05T10:25:22;23.50;1.00
11577;DHT22;5844;51.496;6.788;2022-07-05T10:27:50;23.60;57.70
11577;DHT22;5844;51.496;6.788;2022-07-05T10:30:21;23.50;44.60
11577;DHT22;5844;51.496;6.788;2022-07-05T10:32:48;23.40;99.90
11577;DHT22;5844;51.496;6.788;2022-07-05T10:35:16;23.40;86.50
11577;DHT22;5844;51.496;6.788;2022-07-05T10:37:43;23.00;99.90
11577;DHT22;5844;51.496;6.788;2022-07-05T10:40:10;23.00;1.00
11577;DHT22;5844;51.496;6.788;2022-07-05T10:42:41;22.90;1.00
11577;DHT22;5844;51.496;6.788;2022-07-05T10:50:49;23.90;1.00
11577;DHT22;5844;51.496;6.788;2022-07-05T11:03:50;24.90;99.90
11577;DHT22;5844;51.496;6.788;2022-07-05T11:06:21;25.40;99.90
11577;DHT22;5844;51.496;6.788;2022-07-05T11:11:41;27.30;99.90
11577;DHT22;5844;51.496;6.788;2022-07-05T11:16:45;27.30;1.00
11577;DHT22;5844;51.496;6.788;2022-07-05T11:19:15;27.20;1.00
11577;DHT22;5844;51.496;6.788;2022-07-05T11:22:02;28.00;1.00
11577;DHT22;5844;51.496;6.788;2022-07-05T11:24:30;29.00;1.00
11577;DHT22;5844;51.496;6.788;2022-07-05T11:27:01;30.00;99.90
11577;DHT22;5844;51.496;6.788;2022-07-05T11:32:10;29.50;1.00
11577;DHT22;5844;51.496;6.788;2022-07-05T11:34:37;29.20;99.90
11577;DHT22;5844;51.496;6.788;2022-07-05T11:37:23;29.20;99.90
11577;DHT22;5844;51.496;6.788;2022-07-05T11:42:45;27.80;1.00
11577;DHT22;5844;51.496;6.788;2022-07-05T11:45:11;27.30;1.00
11577;DHT22;5844;51.496;6.788;2022-07-05T11:47:38;26.70;99.90
11577;DHT22;5844;51.496;6.788;2022-07-05T11:50:04;26.70;99.90
11577;DHT22;5844;51.496;6.788;2022-07-05T11:52:35;27.10;1.00
11577;DHT22;5844;51.496;6.788;2022-07-05T11:55:03;27.80;99.90
11577;DHT22;5844;51.496;6.788;2022-07-05T11:57:29;28.30;1.00
11577;DHT22;5844;51.496;6.788;2022-07-05T11:59:55;28.60;1.00
11577;DHT22;5844;51.496;6.788;2022-07-05T12:02:21;29.20;1.00
11577;DHT22;5844;51.496;6.788;2022-07-05T12:07:31;30.30;1.00
11577;DHT22;5844;51.496;6.788;2022-07-05T12:09:58;30.30;1.00
11577;DHT22;5844;51.496;6.788;2022-07-05T12:12:43;30.50;99.90
11577;DHT22;5844;51.496;6.788;2022-07-05T12:15:17;30.20;99.90
11577;DHT22;5844;51.496;6.788;2022-07-05T12:17:45;29.50;68.00
11577;DHT22;5844;51.496;6.788;2022-07-05T12:20:13;28.80;99.90
11577;DHT22;5844;51.496;6.788;2022-07-05T12:22:44;28.40;1.00
11577;DHT22;5844;51.496;6.788;2022-07-05T12:25:16;28.30;85.20
11577;DHT22;5844;51.496;6.788;2022-07-05T12:27:44;29.00;99.90
11577;DHT22;5844;51.496;6.788;2022-07-05T12:30:11;29.50;1.00
11577;DHT22;5844;51.496;6.788;2022-07-05T12:35:45;30.40;99.90
11577;DHT22;5844;51.496;6.788;2022-07-05T12:38:19;32.00;99.90
11577;DHT22;5844;51.496;6.788;2022-07-05T12:40:46;31.60;99.90
11577;DHT22;5844;51.496;6.788;2022-07-05T12:43:15;32.10;1.00
11577;DHT22;5844;51.496;6.788;2022-07-05T12:48:40;32.60;1.00
11577;DHT22;5844;51.496;6.788;2022-07-05T12:51:07;33.30;99.90
11577;DHT22;5844;51.496;6.788;2022-07-05T12:53:34;32.60;99.90
11577;DHT22;5844;51.496;6.788;2022-07-05T12:56:23;33.10;1.00
11577;DHT22;5844;51.496;6.788;2022-07-05T12:59:10;32.60;93.00
11577;DHT22;5844;51.496;6.788;2022-07-05T13:01:41;31.90;99.90
11577;DHT22;5844;51.496;6.788;2022-07-05T13:04:14;30.90;99.90
11577;DHT22;5844;51.496;6.788;2022-07-05T13:09:34;30.00;1.00
11577;DHT22;5844;51.496;6.788;2022-07-05T13:12:07;30.10;1.00
11577;DHT22;5844;51.496;6.788;2022-07-05T13:14:34;29.80;1.00
11577;DHT22;5844;51.496;6.788;2022-07-05T13:17:00;30.60;1.00
11577;DHT22;5844;51.496;6.788;2022-07-05T13:19:26;32.30;1.00
11577;DHT22;5844;51.496;6.788;2022-07-05T13:21:52;33.70;12.90
11577;DHT22;5844;51.496;6.788;2022-07-05T13:24:17;34.20;95.60
11577;DHT22;5844;51.496;6.788;2022-07-05T13:26:44;33.80;99.90
11577;DHT22;5844;51.496;6.788;2022-07-05T13:29:09;32.30;1.00
11577;DHT22;5844;51.496;6.788;2022-07-05T13:31:35;31.10;99.90
11577;DHT22;5844;51.496;6.788;2022-07-05T13:34:02;31.00;99.90
11577;DHT22;5844;51.496;6.788;2022-07-05T13:36:30;31.00;99.90
11577;DHT22;5844;51.496;6.788;2022-07-05T13:38:55;30.80;1.00
11577;DHT22;5844;51.496;6.788;2022-07-05T13:41:21;31.20;99.90
11577;DHT22;5844;51.496;6.788;2022-07-05T13:43:47;30.90;99.90
11577;DHT22;5844;51.496;6.788;2022-07-05T13:46:13;30.20;1.00
11577;DHT22;5844;51.496;6.788;2022-07-05T13:48:39;29.50;1.00
11577;DHT22;5844;51.496;6.788;2022-07-05T13:51:05;28.70;99.90
11577;DHT22;5844;51.496;6.788;2022-07-05T13:53:31;29.70;1.00
11577;DHT22;5844;51.496;6.788;2022-07-05T13:55:57;31.50;1.00
11577;DHT22;5844;51.496;6.788;2022-07-05T13:58:23;32.20;99.90
11577;DHT22;5844;51.496;6.788;2022-07-05T14:00:49;30.90;1.00
11577;DHT22;5844;51.496;6.788;2022-07-05T14:03:15;28.70;1.00
11577;DHT22;5844;51.496;6.788;2022-07-05T14:05:44;27.10;99.90
11577;DHT22;5844;51.496;6.788;2022-07-05T14:08:13;26.10;1.00
11577;DHT22;5844;51.496;6.788;2022-07-05T14:10:39;25.60;1.00
11577;DHT22;5844;51.496;6.788;2022-07-05T14:13:06;25.20;1.00
11577;DHT22;5844;51.496;6.788;2022-07-05T14:15:32;25.10;1.00
11577;DHT22;5844;51.496;6.788;2022-07-05T14:17:58;26.40;1.00
11577;DHT22;5844;51.496;6.788;2022-07-05T14:20:25;28.70;92.90
11577;DHT22;5844;51.496;6.788;2022-07-05T14:22:51;31.30;1.00
11577;DHT22;5844;51.496;6.788;2022-07-05T14:25:17;33.50;1.00
11577;DHT22;5844;51.496;6.788;2022-07-05T14:27:42;34.50;1.00
11577;DHT22;5844;51.496;6.788;2022-07-05T14:30:09;34.80;99.90
11577;DHT22;5844;51.496;6.788;2022-07-05T14:32:36;34.10;99.90
11577;DHT22;5844;51.496;6.788;2022-07-05T14:35:02;32.70;1.00
11577;DHT22;5844;51.496;6.788;2022-07-05T14:37:28;31.60;99.90
11577;DHT22;5844;51.496;6.788;2022-07-05T14:39:54;32.00;1.00
11577;DHT22;5844;51.496;6.788;2022-07-05T14:42:19;31.80;1.00
11577;DHT22;5844;51.496;6.788;2022-07-05T14:44:45;32.50;12.70
11577;DHT22;5844;51.496;6.788;2022-07-05T14:47:11;32.90;1.00
11577;DHT22;5844;51.496;6.788;2022-07-05T14:49:36;32.50;1.00
11577;DHT22;5844;51.496;6.788;2022-07-05T14:52:02;31.80;1.00
11577;DHT22;5844;51.496;6.788;2022-07-05T14:54:28;30.60;1.00
11577;DHT22;5844;51.496;6.788;2022-07-05T14:56:54;29.20;1.00
11577;DHT22;5844;51.496;6.788;2022-07-05T14:59:20;27.80;22.70
11577;DHT22;5844;51.496;6.788;2022-07-05T15:01:46;27.50;99.90
11577;DHT22;5844;51.496;6.788;2022-07-05T15:04:11;28.10;99.90
11577;DHT22;5844;51.496;6.788;2022-07-05T15:06:37;28.20;1.00
11577;DHT22;5844;51.496;6.788;2022-07-05T15:09:03;27.90;40.20
11577;DHT22;5844;51.496;6.788;2022-07-05T15:11:28;27.00;1.00
11577;DHT22;5844;51.496;6.788;2022-07-05T15:13:54;26.30;1.00
11577;DHT22;5844;51.496;6.788;2022-07-05T15:16:20;25.60;99.90
11577;DHT22;5844;51.496;6.788;2022-07-05T15:18:46;25.20;1.00
11577;DHT22;5844;51.496;6.788;2022-07-05T15:21:12;24.90;99.90
11577;DHT22;5844;51.496;6.788;2022-07-05T15:23:37;24.70;1.00
11577;DHT22;5844;51.496;6.788;2022-07-05T15:26:03;24.70;99.90
11577;DHT22;5844;51.496;6.788;2022-07-05T15:28:28;24.80;65.90
11577;DHT22;5844;51.496;6.788;2022-07-05T15:30:54;24.80;1.00
11577;DHT22;5844;51.496;6.788;2022-07-05T15:33:22;24.50;1.00
11577;DHT22;5844;51.496;6.788;2022-07-05T15:35:53;24.20;63.10
11577;DHT22;5844;51.496;6.788;2022-07-05T15:38:26;24.00;99.90
11577;DHT22;5844;51.496;6.788;2022-07-05T15:40:56;23.80;99.90
11577;DHT22;5844;51.496;6.788;2022-07-05T15:43:22;23.70;99.90
11577;DHT22;5844;51.496;6.788;2022-07-05T15:45:51;23.50;99.90
11577;DHT22;5844;51.496;6.788;2022-07-05T15:48:19;23.30;99.90
11577;DHT22;5844;51.496;6.788;2022-07-05T15:50:44;23.20;99.90
11577;DHT22;5844;51.496;6.788;2022-07-05T15:53:10;23.10;1.00
11577;DHT22;5844;51.496;6.788;2022-07-05T15:55:36;23.00;99.90
11577;DHT22;5844;51.496;6.788;2022-07-05T15:58:01;23.00;99.90
11577;DHT22;5844;51.496;6.788;2022-07-05T16:00:27;22.90;1.00
11577;DHT22;5844;51.496;6.788;2022-07-05T16:02:53;22.90;99.90
11577;DHT22;5844;51.496;6.788;2022-07-05T16:05:18;23.00;1.00
11577;DHT22;5844;51.496;6.788;2022-07-05T16:07:44;23.10;99.90
11577;DHT22;5844;51.496;6.788;2022-07-05T16:10:10;23.30;1.00
11577;DHT22;5844;51.496;6.788;2022-07-05T16:12:36;23.50;99.90
11577;DHT22;5844;51.496;6.788;2022-07-05T16:15:02;23.50;99.90
11577;DHT22;5844;51.496;6.788;2022-07-05T16:17:27;23.40;99.90
11577;DHT22;5844;51.496;6.788;2022-07-05T16:19:53;23.30;1.00
11577;DHT22;5844;51.496;6.788;2022-07-05T16:22:19;23.30;99.90
11577;DHT22;5844;51.496;6.788;2022-07-05T16:24:44;23.40;1.00
11577;DHT22;5844;51.496;6.788;2022-07-05T16:27:10;23.30;99.90
11577;DHT22;5844;51.496;6.788;2022-07-05T16:29:44;23.30;99.90
11577;DHT22;5844;51.496;6.788;2022-07-05T16:32:09;23.30;99.90
11577;DHT22;5844;51.496;6.788;2022-07-05T16:34:35;23.10;99.90
11577;DHT22;5844;51.496;6.788;2022-07-05T16:37:01;23.10;99.90
11577;DHT22;5844;51.496;6.788;2022-07-05T16:39:30;23.00;99.90
11577;DHT22;5844;51.496;6.788;2022-07-05T16:41:56;23.00;99.90